Terminal Aerodrome Forecast
Issued by NWS Cleveland, OH

Home | Current Version | Previous Version | Graphics & Text | Print | Product List | Glossary On
Versions: 1 2 3 4 5 6 7 8 9 10 11 12 13 14 15 16 17 18
000
FTUS41 KCLE 251736
TAFTOL
TAF
KTOL 251736Z 2518/2618 23012G18KT P6SM SCT030
     FM252000 24012KT P6SM VCTS BKN035CB
      TEMPO 2521/2524 2SM TSRA BR OVC015CB
     FM260100 26005KT P6SM OVC025
     FM260400 29005KT P6SM SCT025=

USA.gov is the U.S. government's official web portal to all federal, state and local government web resources and services.